createdAt,value
2018-02-21T00:00:09.683Z,10.00
2018-02-21T00:01:12.159Z,10.10
2018-02-21T00:02:14.628Z,12.13
2018-02-21T00:03:17.100Z,7.60
2018-02-21T00:04:19.596Z,18.03
2018-02-21T00:05:22.073Z,7.63
2018-02-21T00:06:24.535Z,8.00
2018-02-21T00:07:27.007Z,12.97
2018-02-21T00:08:29.990Z,6.40
2018-02-21T00:09:32.497Z,5.33
2018-02-21T00:10:35.719Z,7.60
2018-02-21T00:11:38.183Z,8.63
2018-02-21T00:12:40.671Z,12.27
2018-02-21T00:13:43.148Z,7.83
2018-02-21T00:14:45.645Z,8.33
2018-02-21T00:15:48.159Z,12.73
2018-02-21T00:16:50.620Z,13.40
2018-02-21T00:17:53.097Z,6.37
2018-02-21T00:18:55.564Z,9.07
2018-02-21T00:19:58.060Z,10.70
2018-02-21T00:21:00.522Z,7.40
2018-02-21T00:22:02.996Z,11.43
2018-02-21T00:23:05.477Z,7.70
2018-02-21T00:24:07.947Z,10.20
2018-02-21T00:25:10.456Z,10.67
2018-02-21T00:26:12.944Z,9.03
2018-02-21T00:27:15.421Z,6.77
2018-02-21T00:28:17.907Z,8.60
2018-02-21T00:29:20.393Z,11.50
2018-02-21T00:30:22.891Z,9.27
2018-02-21T00:31:25.350Z,7.23
2018-02-21T00:32:27.810Z,7.63
2018-02-21T00:33:30.282Z,8.37
2018-02-21T00:34:32.770Z,9.30
2018-02-21T00:35:35.272Z,7.87
2018-02-21T00:36:37.739Z,8.10
2018-02-21T00:37:40.225Z,10.17
2018-02-21T00:38:42.709Z,6.00
2018-02-21T00:39:45.197Z,7.13
2018-02-21T00:40:47.688Z,16.00
2018-02-21T00:41:50.151Z,6.60
2018-02-21T00:42:52.629Z,13.83
2018-02-21T00:43:55.109Z,6.83
2018-02-21T00:44:57.575Z,10.87
2018-02-21T00:46:00.060Z,8.30
2018-02-21T00:47:02.531Z,9.37
2018-02-21T00:48:04.999Z,14.37
2018-02-21T00:49:07.465Z,7.43
2018-02-21T00:50:09.939Z,10.90
2018-02-21T00:51:12.429Z,6.40
2018-02-21T00:52:14.908Z,11.33
2018-02-21T00:53:17.385Z,8.57
2018-02-21T00:54:19.855Z,10.87
2018-02-21T00:55:22.341Z,15.67
2018-02-21T00:56:24.830Z,11.57
2018-02-21T00:57:27.314Z,8.23
2018-02-21T00:58:29.787Z,14.80
2018-02-21T00:59:32.252Z,8.40
2018-02-21T01:00:34.715Z,8.67
2018-02-21T01:01:37.221Z,10.23
2018-02-21T01:02:39.689Z,25.57
2018-02-21T01:03:42.154Z,7.83
2018-02-21T01:04:44.629Z,5.93
2018-02-21T01:05:47.098Z,10.20
2018-02-21T01:06:49.598Z,8.03
2018-02-21T01:07:52.148Z,9.23
2018-02-21T01:08:54.650Z,16.50
2018-02-21T01:09:57.119Z,7.57
2018-02-21T01:10:59.583Z,10.23
2018-02-21T01:12:02.092Z,7.53
2018-02-21T01:13:04.570Z,5.70
2018-02-21T01:14:07.036Z,9.20
2018-02-21T01:15:09.521Z,10.20
2018-02-21T01:16:12.001Z,7.40
2018-02-21T01:17:14.497Z,10.23
2018-02-21T01:18:16.971Z,6.20
2018-02-21T01:19:19.449Z,11.97
2018-02-21T01:20:21.945Z,14.23
2018-02-21T01:21:24.415Z,7.80
2018-02-21T01:22:26.915Z,10.63
2018-02-21T01:23:29.383Z,10.70
2018-02-21T01:24:31.851Z,18.47
2018-02-21T01:25:34.329Z,6.53
2018-02-21T01:26:36.788Z,5.77
2018-02-21T01:27:39.369Z,12.43
2018-02-21T01:28:41.842Z,14.80
2018-02-21T01:29:44.317Z,6.67
2018-02-21T01:30:46.782Z,14.67
2018-02-21T01:31:49.244Z,8.13
2018-02-21T01:32:51.732Z,9.87
2018-02-21T01:33:54.217Z,14.97
2018-02-21T01:34:56.698Z,5.93
2018-02-21T01:35:59.162Z,8.63
2018-02-21T01:37:01.641Z,11.63
2018-02-21T01:38:04.138Z,6.27
2018-02-21T01:39:06.627Z,13.63
2018-02-21T01:40:09.115Z,11.10
2018-02-21T01:41:11.593Z,6.60
2018-02-21T01:42:14.059Z,7.33
2018-02-21T01:43:16.526Z,8.90
2018-02-21T01:44:19.037Z,7.80
2018-02-21T01:45:21.495Z,6.83
2018-02-21T01:46:24.058Z,6.90
2018-02-21T01:47:26.523Z,9.00
2018-02-21T01:48:28.987Z,4.77
2018-02-21T01:49:31.455Z,6.83
2018-02-21T01:50:45.775Z,8.73
2018-02-21T01:51:48.258Z,7.70
2018-02-21T01:52:50.737Z,5.80
2018-02-21T01:53:53.222Z,8.93
2018-02-21T01:54:55.709Z,6.00
2018-02-21T01:55:58.189Z,6.80
2018-02-21T01:57:00.677Z,8.30
2018-02-21T01:58:03.157Z,7.63
2018-02-21T01:59:05.637Z,5.33
2018-02-21T02:00:08.118Z,9.90
2018-02-21T02:01:10.605Z,10.10
2018-02-21T02:02:13.080Z,8.70
2018-02-21T02:03:15.562Z,13.30
2018-02-21T02:04:18.039Z,5.33
2018-02-21T02:05:20.521Z,7.90
2018-02-21T02:06:23.006Z,6.77
2018-02-21T02:07:25.483Z,9.23
2018-02-21T02:08:27.973Z,8.03
2018-02-21T02:09:30.457Z,13.03
2018-02-21T02:10:32.934Z,9.83
2018-02-21T02:11:35.402Z,10.10
2018-02-21T02:12:37.882Z,8.03
2018-02-21T02:13:40.375Z,7.07
2018-02-21T02:14:42.849Z,7.27
2018-02-21T02:15:45.327Z,20.93
2018-02-21T02:16:47.795Z,8.03
2018-02-21T02:17:50.264Z,6.80
2018-02-21T02:18:52.754Z,7.20
2018-02-21T02:19:55.243Z,11.80
2018-02-21T02:20:57.722Z,7.00
2018-02-21T02:22:00.190Z,7.97
2018-02-21T02:23:02.655Z,10.40
2018-02-21T02:24:05.135Z,6.17
2018-02-21T02:25:07.612Z,12.07
2018-02-21T02:26:10.081Z,7.27
2018-02-21T02:27:12.565Z,5.00
2018-02-21T02:28:15.045Z,10.20
2018-02-21T02:29:17.510Z,7.00
2018-02-21T02:30:19.993Z,7.20
2018-02-21T02:31:22.459Z,5.60
2018-02-21T02:32:24.941Z,10.20
2018-02-21T02:33:27.417Z,8.67
2018-02-21T02:34:29.883Z,7.67
2018-02-21T02:35:32.366Z,8.10
2018-02-21T02:36:34.835Z,7.77
2018-02-21T02:37:37.313Z,6.00
2018-02-21T02:38:42.034Z,8.53
2018-02-21T02:40:02.252Z,7.23
2018-02-21T02:41:04.719Z,7.43
2018-02-21T02:42:07.190Z,8.80
2018-02-21T02:43:09.656Z,5.80
2018-02-21T02:44:12.141Z,4.33
2018-02-21T02:45:14.627Z,6.27
2018-02-21T02:46:17.119Z,10.17
2018-02-21T02:47:19.598Z,5.87
2018-02-21T02:48:22.063Z,7.97
2018-02-21T02:49:24.535Z,8.33
2018-02-21T02:50:27.034Z,5.80
2018-02-21T02:51:29.506Z,6.77
2018-02-21T02:52:31.971Z,10.73
2018-02-21T02:53:34.453Z,8.37
2018-02-21T02:54:36.933Z,7.27
2018-02-21T02:55:39.430Z,5.20
2018-02-21T02:56:41.915Z,6.13
2018-02-21T02:57:44.397Z,4.70
2018-02-21T02:58:46.874Z,12.30
2018-02-21T02:59:49.361Z,6.67
2018-02-21T03:00:51.866Z,6.77
2018-02-21T03:01:54.331Z,6.80
2018-02-21T03:02:56.810Z,8.17
2018-02-21T03:03:59.278Z,4.87
2018-02-21T03:05:01.750Z,7.50
2018-02-21T03:06:04.254Z,5.40
2018-02-21T03:07:06.790Z,4.20
2018-02-21T03:08:09.270Z,5.27
2018-02-21T03:09:11.746Z,4.80
2018-02-21T03:10:14.211Z,8.83
2018-02-21T03:11:16.691Z,7.80
2018-02-21T03:12:19.159Z,9.10
2018-02-21T03:13:21.633Z,7.07
2018-02-21T03:14:24.122Z,5.60
2018-02-21T03:15:26.605Z,11.67
2018-02-21T03:16:29.095Z,5.10
2018-02-21T03:17:31.568Z,10.57
2018-02-21T03:18:34.033Z,4.70
2018-02-21T03:19:36.517Z,10.97
2018-02-21T03:20:38.991Z,12.03
2018-02-21T03:21:41.479Z,5.00
2018-02-21T03:22:43.957Z,5.40
2018-02-21T03:23:46.424Z,7.20
2018-02-21T03:24:48.894Z,4.43
2018-02-21T03:25:51.372Z,7.80
2018-02-21T03:26:53.897Z,4.80
2018-02-21T03:27:56.372Z,5.90
2018-02-21T03:28:58.862Z,4.03
2018-02-21T03:30:01.332Z,3.60
2018-02-21T03:31:03.795Z,6.90
2018-02-21T03:32:06.301Z,4.90
2018-02-21T03:33:08.769Z,12.60
2018-02-21T03:34:11.250Z,8.13
2018-02-21T03:35:13.716Z,4.20
2018-02-21T03:36:16.259Z,5.60
2018-02-21T03:37:18.762Z,8.80
2018-02-21T03:38:21.227Z,5.33
2018-02-21T03:39:23.695Z,4.83
2018-02-21T03:40:26.162Z,4.60
2018-02-21T03:41:28.637Z,4.40
2018-02-21T03:42:31.138Z,4.30
2018-02-21T03:43:33.610Z,10.40
2018-02-21T03:44:36.075Z,6.83
2018-02-21T03:45:38.566Z,12.23
2018-02-21T03:46:41.030Z,6.00
2018-02-21T03:47:43.529Z,5.20
2018-02-21T03:48:46.004Z,6.83
2018-02-21T03:49:48.494Z,6.63
2018-02-21T03:50:50.963Z,4.53
2018-02-21T03:51:53.453Z,6.17
2018-02-21T03:52:55.944Z,4.93
2018-02-21T03:53:58.454Z,11.20
2018-02-21T03:55:00.922Z,10.03
2018-02-21T03:56:03.401Z,6.70
2018-02-21T03:57:05.882Z,6.87
2018-02-21T03:58:08.383Z,15.80
2018-02-21T03:59:10.866Z,6.47
2018-02-21T04:00:13.350Z,7.40
2018-02-21T04:01:15.810Z,4.10
2018-02-21T04:02:18.279Z,4.77
2018-02-21T04:03:20.763Z,4.10
2018-02-21T04:04:23.241Z,7.33
2018-02-21T04:05:25.724Z,6.70
2018-02-21T04:06:28.187Z,5.00
2018-02-21T04:07:30.666Z,8.77
2018-02-21T04:08:33.158Z,6.73
2018-02-21T04:09:35.632Z,6.73
2018-02-21T04:10:38.094Z,5.27
2018-02-21T04:11:40.573Z,5.03
2018-02-21T04:12:43.059Z,15.07
2018-02-21T04:13:45.554Z,10.00
2018-02-21T04:14:48.031Z,9.47
2018-02-21T04:15:50.514Z,5.60
2018-02-21T04:16:52.988Z,4.17
2018-02-21T04:17:55.475Z,17.07
2018-02-21T04:19:00.869Z,7.07
2018-02-21T04:20:03.334Z,8.43
2018-02-21T04:21:05.799Z,7.23
2018-02-21T04:22:08.263Z,5.63
2018-02-21T04:23:10.726Z,9.20
2018-02-21T04:24:13.211Z,5.10
2018-02-21T04:25:15.685Z,6.70
2018-02-21T04:26:18.211Z,8.40
2018-02-21T04:27:20.678Z,7.63
2018-02-21T04:28:23.263Z,7.10
2018-02-21T04:29:25.760Z,9.00
2018-02-21T04:30:28.226Z,9.37
2018-02-21T04:31:30.690Z,5.63
2018-02-21T04:32:33.171Z,6.40
2018-02-21T04:33:35.657Z,11.70
2018-02-21T04:34:38.160Z,3.57
2018-02-21T04:35:40.638Z,7.73
2018-02-21T04:36:43.105Z,3.83
2018-02-21T04:37:45.572Z,5.97
2018-02-21T04:38:48.055Z,13.03
2018-02-21T04:39:50.558Z,5.50
2018-02-21T04:40:53.060Z,9.30
2018-02-21T04:41:55.522Z,6.47
2018-02-21T04:42:57.990Z,4.70
2018-02-21T04:44:00.466Z,5.97
2018-02-21T04:45:02.958Z,5.17
2018-02-21T04:46:05.433Z,5.27
2018-02-21T04:47:07.899Z,4.77
2018-02-21T04:48:10.391Z,6.30
2018-02-21T04:49:12.895Z,5.07
2018-02-21T04:50:15.405Z,4.10
2018-02-21T04:51:17.885Z,5.97
2018-02-21T04:52:20.355Z,15.90
2018-02-21T04:53:22.823Z,8.47
2018-02-21T04:54:35.207Z,7.87
2018-02-21T04:55:43.223Z,4.80
2018-02-21T04:58:24.774Z,10.53
2018-02-21T04:59:30.146Z,8.50
2018-02-21T05:00:32.615Z,6.00
2018-02-21T05:01:35.112Z,5.33
2018-02-21T05:02:37.578Z,5.60
2018-02-21T05:03:40.044Z,5.23
2018-02-21T05:04:42.521Z,6.80
2018-02-21T05:05:45.016Z,11.63
2018-02-21T05:06:47.496Z,7.20
2018-02-21T05:07:49.978Z,4.97
2018-02-21T05:08:52.462Z,6.70
2018-02-21T05:09:54.937Z,5.67
2018-02-21T05:10:57.445Z,11.23
2018-02-21T05:11:59.925Z,5.57
2018-02-21T05:13:02.397Z,5.60
2018-02-21T05:14:04.862Z,3.40
2018-02-21T05:15:07.332Z,5.10
2018-02-21T05:16:09.817Z,11.87
2018-02-21T05:17:12.298Z,5.43
2018-02-21T05:18:14.781Z,9.97
2018-02-21T05:19:17.261Z,7.63
2018-02-21T05:20:19.733Z,11.50
2018-02-21T05:21:22.233Z,5.17
2018-02-21T05:22:24.712Z,8.00
2018-02-21T05:23:27.193Z,5.80
2018-02-21T05:24:29.658Z,5.83
2018-02-21T05:25:32.141Z,4.40
2018-02-21T05:26:34.626Z,5.73
2018-02-21T05:27:37.111Z,6.00
2018-02-21T05:28:39.579Z,5.87
2018-02-21T05:29:42.060Z,5.80
2018-02-21T05:30:44.549Z,5.70
2018-02-21T05:31:47.041Z,6.73
2018-02-21T05:32:49.525Z,5.67
2018-02-21T05:33:51.988Z,5.90
2018-02-21T05:34:54.478Z,5.67
2018-02-21T05:35:56.966Z,7.20
2018-02-21T05:36:59.524Z,8.13
2018-02-21T05:38:02.034Z,5.70
2018-02-21T05:39:04.543Z,5.37
2018-02-21T05:40:07.011Z,6.20
2018-02-21T05:41:09.497Z,5.30
2018-02-21T05:42:11.983Z,5.70
2018-02-21T05:43:14.447Z,4.97
2018-02-21T05:44:16.912Z,5.10
2018-02-21T05:45:19.375Z,10.73
2018-02-21T05:46:21.840Z,5.40
2018-02-21T05:47:24.327Z,4.60
2018-02-21T05:48:26.804Z,5.90
2018-02-21T05:49:29.272Z,8.47
2018-02-21T05:50:31.757Z,7.47
2018-02-21T05:51:34.328Z,6.67
2018-02-21T05:52:36.811Z,6.30
2018-02-21T05:53:39.291Z,3.30
2018-02-21T05:54:41.767Z,7.57
2018-02-21T05:55:44.261Z,10.40
2018-02-21T05:56:46.737Z,9.03
2018-02-21T05:57:49.311Z,5.97
2018-02-21T05:58:51.775Z,5.27
2018-02-21T05:59:54.261Z,7.23
2018-02-21T06:00:56.742Z,6.23
2018-02-21T06:01:59.224Z,7.20
2018-02-21T06:03:01.730Z,10.27
2018-02-21T06:04:04.196Z,5.00
2018-02-21T06:05:06.722Z,13.13
2018-02-21T06:06:09.177Z,6.97
2018-02-21T06:07:11.641Z,4.47
2018-02-21T06:08:14.149Z,4.63
2018-02-21T06:09:16.633Z,4.47
2018-02-21T06:10:19.116Z,7.97
2018-02-21T06:11:21.587Z,4.17
2018-02-21T06:12:24.056Z,6.40
2018-02-21T06:13:26.546Z,4.00
2018-02-21T06:14:29.018Z,5.30
2018-02-21T06:15:31.484Z,6.20
2018-02-21T06:16:33.989Z,6.20
2018-02-21T06:17:36.458Z,8.83
2018-02-21T06:18:38.971Z,5.00
2018-02-21T06:19:41.435Z,5.07
2018-02-21T06:20:43.900Z,5.43
2018-02-21T06:21:46.369Z,4.27
2018-02-21T06:22:48.868Z,4.50
2018-02-21T06:23:51.366Z,6.60
2018-02-21T06:24:53.834Z,6.53
2018-02-21T06:25:56.303Z,6.40
2018-02-21T06:26:58.929Z,6.63
2018-02-21T06:28:01.417Z,4.07
2018-02-21T06:29:04.005Z,5.60
2018-02-21T06:30:06.523Z,7.60
2018-02-21T06:31:08.989Z,7.00
2018-02-21T06:32:11.483Z,5.27
2018-02-21T06:33:13.955Z,5.67
2018-02-21T06:34:16.444Z,7.70
2018-02-21T06:35:18.985Z,3.90
2018-02-21T06:36:21.447Z,7.73
2018-02-21T06:37:23.910Z,6.23
2018-02-21T06:38:26.394Z,4.17
2018-02-21T06:39:28.910Z,11.63
2018-02-21T06:40:31.383Z,5.30
2018-02-21T06:41:33.897Z,4.97
2018-02-21T06:42:36.373Z,8.10
2018-02-21T06:43:38.847Z,7.97
2018-02-21T06:44:41.331Z,8.53
2018-02-21T06:45:43.813Z,5.40
2018-02-21T06:46:46.293Z,10.33
2018-02-21T06:47:48.769Z,12.73
2018-02-21T06:48:51.248Z,3.40
2018-02-21T06:49:53.750Z,4.37
2018-02-21T06:50:56.229Z,14.90
2018-02-21T06:51:58.730Z,6.20
2018-02-21T06:53:01.214Z,8.03
2018-02-21T06:54:03.682Z,5.27
2018-02-21T06:55:06.168Z,9.67
2018-02-21T06:56:08.638Z,9.77
2018-02-21T06:57:11.116Z,8.77
2018-02-21T06:58:13.593Z,5.17
2018-02-21T06:59:16.102Z,7.07
2018-02-21T07:00:18.590Z,10.70
2018-02-21T07:01:21.055Z,6.70
2018-02-21T07:02:35.488Z,7.37
2018-02-21T07:03:37.985Z,5.80
2018-02-21T07:04:40.478Z,16.10
2018-02-21T07:05:43.095Z,4.20
2018-02-21T07:06:45.747Z,8.40
2018-02-21T07:07:48.229Z,6.03
2018-02-21T07:08:50.695Z,4.30
2018-02-21T07:09:53.163Z,9.83
2018-02-21T07:10:55.651Z,6.50
2018-02-21T07:11:58.165Z,10.30
2018-02-21T07:13:00.661Z,11.90
2018-02-21T07:14:03.123Z,6.63
2018-02-21T07:15:05.589Z,10.73
2018-02-21T07:16:08.085Z,12.57
2018-02-21T07:17:10.552Z,6.60
2018-02-21T07:18:13.033Z,7.57
2018-02-21T07:19:15.499Z,9.47
2018-02-21T07:20:17.974Z,4.63
2018-02-21T07:21:20.487Z,11.77
2018-02-21T07:22:22.965Z,15.10
2018-02-21T07:23:25.439Z,12.67
2018-02-21T07:24:27.925Z,16.87
2018-02-21T07:25:30.403Z,20.83
2018-02-21T07:26:32.917Z,33.37
2018-02-21T07:27:35.409Z,27.57
2018-02-21T07:28:37.905Z,37.70
2018-02-21T07:29:40.397Z,42.27
2018-02-21T07:30:42.884Z,48.70
2018-02-21T07:31:45.387Z,48.73
2018-02-21T07:32:47.873Z,50.03
2018-02-21T07:33:50.359Z,45.43
2018-02-21T07:34:52.849Z,54.80
2018-02-21T07:35:55.352Z,54.80
2018-02-21T07:36:57.869Z,52.07
2018-02-21T07:38:00.398Z,62.33
2018-02-21T07:39:02.968Z,54.53
2018-02-21T07:40:05.469Z,49.57
2018-02-21T07:41:07.958Z,48.17
2018-02-21T07:42:10.459Z,52.10
2018-02-21T07:43:12.951Z,52.00
2018-02-21T07:44:15.438Z,53.50
2018-02-21T07:45:17.916Z,52.03
2018-02-21T07:46:20.403Z,51.43
2018-02-21T07:47:22.916Z,51.40
2018-02-21T07:48:25.399Z,46.60
2018-02-21T07:49:27.905Z,56.37
2018-02-21T07:50:30.417Z,50.93
2018-02-21T07:51:32.896Z,50.17
2018-02-21T07:52:35.401Z,52.90
2018-02-21T07:53:37.889Z,51.17
2018-02-21T07:54:40.383Z,49.40
2018-02-21T07:55:42.851Z,56.83
2018-02-21T07:56:45.335Z,65.43
2018-02-21T07:57:47.846Z,52.97
2018-02-21T07:58:50.337Z,50.03
2018-02-21T07:59:52.826Z,48.73
2018-02-21T08:00:55.339Z,45.00
2018-02-21T08:01:57.859Z,48.83
2018-02-21T08:03:00.532Z,44.63
2018-02-21T08:04:03.041Z,49.03
2018-02-21T08:05:05.530Z,48.20
2018-02-21T08:06:08.022Z,46.20
2018-02-21T08:07:10.509Z,47.87
2018-02-21T08:08:12.992Z,40.00
2018-02-21T08:09:15.479Z,42.20
2018-02-21T08:10:17.969Z,41.37
2018-02-21T08:11:20.450Z,40.17
2018-02-21T08:12:22.926Z,41.70
2018-02-21T08:13:25.406Z,37.90
2018-02-21T08:14:27.877Z,46.33
2018-02-21T08:15:30.420Z,42.47
2018-02-21T08:16:32.901Z,40.00
2018-02-21T08:17:35.371Z,39.27
2018-02-21T08:18:37.843Z,39.10
2018-02-21T08:19:40.322Z,38.50
2018-02-21T08:20:42.874Z,39.40
2018-02-21T08:21:45.350Z,37.23
2018-02-21T08:22:47.933Z,38.70
2018-02-21T08:23:50.417Z,39.10
2018-02-21T08:24:52.925Z,40.33
2018-02-21T08:25:55.412Z,35.57
2018-02-21T08:26:58.028Z,41.53
2018-02-21T08:28:00.511Z,40.23
2018-02-21T08:29:02.987Z,37.57
2018-02-21T08:30:05.478Z,36.80
2018-02-21T08:31:07.957Z,38.40
2018-02-21T08:32:10.458Z,38.57
2018-02-21T08:33:12.951Z,34.80
2018-02-21T08:34:15.422Z,34.10
2018-02-21T08:35:17.914Z,33.70
2018-02-21T08:36:20.387Z,36.17
2018-02-21T08:37:22.877Z,32.50
2018-02-21T08:38:25.395Z,36.37
2018-02-21T08:39:28.057Z,35.70
2018-02-21T08:40:30.547Z,36.07
2018-02-21T08:41:33.049Z,33.17
2018-02-21T08:42:35.537Z,37.33
2018-02-21T08:43:38.029Z,37.37
2018-02-21T08:44:40.518Z,35.27
2018-02-21T08:45:43.006Z,36.30
2018-02-21T08:46:45.480Z,39.00
2018-02-21T08:47:47.955Z,42.80
2018-02-21T08:48:50.442Z,33.53
2018-02-21T08:49:52.915Z,35.57
2018-02-21T08:50:55.387Z,46.90
2018-02-21T08:51:57.875Z,33.50
2018-02-21T08:53:00.370Z,35.47
2018-02-21T08:54:02.882Z,39.40
2018-02-21T08:55:05.354Z,39.10
2018-02-21T08:56:07.823Z,44.73
2018-02-21T08:57:10.309Z,40.47
2018-02-21T08:58:12.803Z,44.00
2018-02-21T08:59:15.293Z,44.70
2018-02-21T09:00:17.775Z,43.80
2018-02-21T09:01:20.255Z,41.90
2018-02-21T09:02:22.727Z,46.30
2018-02-21T09:03:25.209Z,42.50
2018-02-21T09:04:27.687Z,41.97
2018-02-21T09:05:30.158Z,49.23
2018-02-21T09:06:32.676Z,42.77
2018-02-21T09:07:35.128Z,45.70
2018-02-21T09:08:37.617Z,41.23
2018-02-21T09:09:40.174Z,41.13
2018-02-21T09:10:42.682Z,43.00
2018-02-21T09:11:45.150Z,41.63
2018-02-21T09:12:47.638Z,36.73
2018-02-21T09:13:50.137Z,36.70
2018-02-21T09:14:52.856Z,37.13
2018-02-21T09:15:55.368Z,40.00
2018-02-21T09:16:57.958Z,36.30
2018-02-21T09:18:00.452Z,38.93
2018-02-21T09:19:02.936Z,39.23
2018-02-21T09:20:05.440Z,39.80
2018-02-21T09:21:07.937Z,39.03
2018-02-21T09:22:10.437Z,37.90
2018-02-21T09:23:12.951Z,38.43
2018-02-21T09:24:15.436Z,39.53
2018-02-21T09:25:18.015Z,37.80
2018-02-21T09:26:20.574Z,32.63
2018-02-21T09:27:23.068Z,31.97
2018-02-21T09:28:25.557Z,32.77
2018-02-21T09:29:28.049Z,33.40
2018-02-21T09:30:30.542Z,29.60
2018-02-21T09:31:33.037Z,32.50
2018-02-21T09:32:35.522Z,31.27
2018-02-21T09:33:37.991Z,33.30
2018-02-21T09:34:40.477Z,30.40
2018-02-21T09:35:42.950Z,31.67
2018-02-21T09:36:45.439Z,33.80
2018-02-21T09:37:47.942Z,27.67
2018-02-21T09:38:50.424Z,29.10
2018-02-21T09:39:52.896Z,33.07
2018-02-21T09:40:55.389Z,28.13
2018-02-21T09:41:57.893Z,29.73
2018-02-21T09:43:00.387Z,34.23
2018-02-21T09:44:02.873Z,28.40
2018-02-21T09:45:05.354Z,30.60
2018-02-21T09:46:07.853Z,26.90
2018-02-21T09:47:10.390Z,28.27
2018-02-21T09:48:12.875Z,28.90
2018-02-21T09:49:15.355Z,28.50
2018-02-21T09:50:17.861Z,25.87
2018-02-21T09:51:20.350Z,45.53
2018-02-21T09:52:22.823Z,26.10
2018-02-21T09:53:25.319Z,27.30
2018-02-21T09:54:27.829Z,29.63
2018-02-21T09:55:30.326Z,32.07
2018-02-21T09:56:32.799Z,28.80
2018-02-21T09:57:35.275Z,24.27
2018-02-21T09:58:37.789Z,25.73
2018-02-21T09:59:40.295Z,30.97
2018-02-21T10:00:43.222Z,25.23
2018-02-21T10:01:45.699Z,25.03
2018-02-21T10:02:48.182Z,26.30
2018-02-21T10:03:50.663Z,32.50
2018-02-21T10:04:53.225Z,31.17
2018-02-21T10:05:55.717Z,34.87
2018-02-21T10:06:58.196Z,27.73
2018-02-21T10:08:00.686Z,26.93
2018-02-21T10:09:03.177Z,33.23
2018-02-21T10:10:05.666Z,27.63
2018-02-21T10:11:08.180Z,34.70
2018-02-21T10:12:10.651Z,29.43
2018-02-21T10:13:13.143Z,26.60
2018-02-21T10:14:15.641Z,54.60
2018-02-21T10:15:18.158Z,34.60
2018-02-21T10:16:20.671Z,28.17
2018-02-21T10:17:23.165Z,27.17
2018-02-21T10:18:25.650Z,40.17
2018-02-21T10:19:28.144Z,31.07
2018-02-21T10:20:30.653Z,39.93
2018-02-21T10:21:33.145Z,35.53
2018-02-21T10:22:35.633Z,45.27
2018-02-21T10:23:38.107Z,33.27
2018-02-21T10:24:40.587Z,36.47
2018-02-21T10:25:43.059Z,52.23
2018-02-21T10:26:45.656Z,41.63
2018-02-21T10:27:48.146Z,43.80
2018-02-21T10:28:50.619Z,30.83
2018-02-21T10:29:53.113Z,40.13
2018-02-21T10:30:55.610Z,34.77
2018-02-21T10:31:58.151Z,31.57
2018-02-21T10:33:00.652Z,43.70
2018-02-21T10:34:03.127Z,35.63
2018-02-21T10:35:05.617Z,41.90
2018-02-21T10:36:08.092Z,52.43
2018-02-21T10:37:10.593Z,37.90
2018-02-21T10:38:13.071Z,33.70
2018-02-21T10:39:15.544Z,39.43
2018-02-21T10:40:18.019Z,34.93
2018-02-21T10:41:20.499Z,57.27
2018-02-21T10:42:22.968Z,35.50
2018-02-21T10:43:25.448Z,30.60
2018-02-21T10:44:27.937Z,32.83
2018-02-21T10:45:30.424Z,31.07
2018-02-21T10:46:32.913Z,32.90
2018-02-21T10:47:35.423Z,31.87
2018-02-21T10:48:37.917Z,36.90
2018-02-21T10:49:40.405Z,33.67
2018-02-21T10:50:42.900Z,34.80
2018-02-21T10:51:45.391Z,39.30
2018-02-21T10:52:47.872Z,46.60
2018-02-21T10:53:50.361Z,33.40
2018-02-21T10:54:52.843Z,38.53
2018-02-21T10:55:55.320Z,30.77
2018-02-21T10:56:57.826Z,32.93
2018-02-21T10:58:00.313Z,32.07
2018-02-21T10:59:02.806Z,29.47
2018-02-21T11:00:05.302Z,29.27
2018-02-21T11:01:13.502Z,33.67
2018-02-21T11:02:15.975Z,31.43
2018-02-21T11:03:18.451Z,33.20
2018-02-21T11:04:20.962Z,33.70
2018-02-21T11:05:23.439Z,31.70
2018-02-21T11:06:25.915Z,34.93
2018-02-21T11:07:28.405Z,31.37
2018-02-21T11:08:30.879Z,28.10
2018-02-21T11:09:33.373Z,29.70
2018-02-21T11:10:35.861Z,35.20
2018-02-21T11:11:38.357Z,30.87
2018-02-21T11:12:40.855Z,32.97
2018-02-21T11:13:43.371Z,35.77
2018-02-21T11:14:45.857Z,31.47
2018-02-21T11:15:48.332Z,32.63
2018-02-21T11:16:50.807Z,28.20
2018-02-21T11:17:53.278Z,34.30
2018-02-21T11:18:55.765Z,31.63
2018-02-21T11:19:58.238Z,31.40
2018-02-21T11:21:00.827Z,29.87
2018-02-21T11:22:03.312Z,40.90
2018-02-21T11:23:05.790Z,26.97
2018-02-21T11:24:08.284Z,29.33
2018-02-21T11:25:10.773Z,29.67
2018-02-21T11:26:13.256Z,25.37
2018-02-21T11:27:15.749Z,27.03
2018-02-21T11:28:18.245Z,28.80
2018-02-21T11:29:20.716Z,28.80
2018-02-21T11:30:23.195Z,29.07
2018-02-21T11:31:25.676Z,29.90
2018-02-21T11:32:28.166Z,26.03
2018-02-21T11:33:30.653Z,37.80
2018-02-21T11:34:33.132Z,31.40
2018-02-21T11:35:35.624Z,31.77
2018-02-21T11:36:38.104Z,34.73
2018-02-21T11:37:40.622Z,35.70
2018-02-21T11:38:43.119Z,29.00
2018-02-21T11:39:45.591Z,32.07
2018-02-21T11:40:48.078Z,36.60
2018-02-21T11:41:50.551Z,35.63
2018-02-21T11:42:53.037Z,34.63
2018-02-21T11:43:55.511Z,29.33
2018-02-21T11:44:57.978Z,33.40
2018-02-21T11:46:00.465Z,29.60
2018-02-21T11:47:02.953Z,37.00
2018-02-21T11:48:05.441Z,27.17
2018-02-21T11:49:07.936Z,35.10
2018-02-21T11:50:10.435Z,30.27
2018-02-21T11:51:12.907Z,32.50
2018-02-21T11:52:15.384Z,30.80
2018-02-21T11:53:17.885Z,35.70
2018-02-21T11:54:20.373Z,30.70
2018-02-21T11:55:22.871Z,26.63
2018-02-21T11:56:25.339Z,26.33
2018-02-21T11:57:27.825Z,26.80
2018-02-21T11:58:30.294Z,25.97
2018-02-21T11:59:32.781Z,27.97
2018-02-21T12:00:35.254Z,27.17
2018-02-21T12:01:37.752Z,27.93
2018-02-21T12:02:40.279Z,29.33
2018-02-21T12:03:42.734Z,27.57
2018-02-21T12:04:45.231Z,26.33
2018-02-21T12:05:47.719Z,24.27
2018-02-21T12:06:50.196Z,29.07
2018-02-21T12:07:52.691Z,29.30
2018-02-21T12:08:55.209Z,25.47
2018-02-21T12:09:57.705Z,28.93
2018-02-21T12:11:00.188Z,34.13
2018-02-21T12:12:02.663Z,29.17
2018-02-21T12:13:05.132Z,32.87
2018-02-21T12:14:07.622Z,30.67
2018-02-21T12:15:10.113Z,24.80
2018-02-21T12:16:12.601Z,27.00
2018-02-21T12:17:15.071Z,21.97
2018-02-21T12:18:17.628Z,24.20
2018-02-21T12:19:20.109Z,24.20
2018-02-21T12:20:22.587Z,21.77
2018-02-21T12:21:25.056Z,22.43
2018-02-21T12:22:27.607Z,22.33
2018-02-21T12:23:30.066Z,25.90
2018-02-21T12:24:32.539Z,25.93
2018-02-21T12:25:35.040Z,23.83
2018-02-21T12:26:37.519Z,19.80
2018-02-21T12:27:40.018Z,28.13
2018-02-21T12:28:42.491Z,25.10
2018-02-21T12:29:44.964Z,25.07
2018-02-21T12:30:47.453Z,20.40
2018-02-21T12:31:50.752Z,22.90
2018-02-21T12:32:54.049Z,20.20
2018-02-21T12:33:56.527Z,19.83
2018-02-21T12:34:59.005Z,21.40
2018-02-21T12:36:01.498Z,28.67
2018-02-21T12:37:03.972Z,26.33
2018-02-21T12:38:06.457Z,21.37
2018-02-21T12:39:14.608Z,23.00
2018-02-21T12:40:22.600Z,22.63
2018-02-21T12:41:42.938Z,22.77
2018-02-21T12:42:45.413Z,21.53
2018-02-21T12:43:47.891Z,19.73
2018-02-21T12:44:50.386Z,20.37
2018-02-21T12:45:52.860Z,24.33
2018-02-21T12:46:55.349Z,20.23
2018-02-21T12:47:57.833Z,18.90
2018-02-21T12:49:00.304Z,18.73
2018-02-21T12:50:02.789Z,20.37
2018-02-21T12:51:05.264Z,18.57
2018-02-21T12:52:07.735Z,20.80
2018-02-21T12:53:10.233Z,17.23
2018-02-21T12:54:12.713Z,17.43
2018-02-21T12:55:15.195Z,17.57
2018-02-21T12:56:17.681Z,18.53
2018-02-21T12:57:20.174Z,20.43
2018-02-21T12:58:22.651Z,17.50
2018-02-21T12:59:25.123Z,20.60
2018-02-21T13:00:27.614Z,19.90
2018-02-21T13:01:30.156Z,24.10
2018-02-21T13:02:32.619Z,18.13
2018-02-21T13:03:35.117Z,20.83
2018-02-21T13:04:37.613Z,19.13
2018-02-21T13:05:40.098Z,22.83
2018-02-21T13:06:42.575Z,21.70
2018-02-21T13:07:45.052Z,17.60
2018-02-21T13:08:47.553Z,21.40
2018-02-21T13:09:50.036Z,21.90
2018-02-21T13:10:52.518Z,17.50
2018-02-21T13:11:55.042Z,24.13
2018-02-21T13:12:57.529Z,19.23
2018-02-21T13:14:00.015Z,18.10
2018-02-21T13:15:02.504Z,18.73
2018-02-21T13:16:04.976Z,25.73
2018-02-21T13:17:07.471Z,20.57
2018-02-21T13:18:09.948Z,20.70
2018-02-21T13:19:12.422Z,21.57
2018-02-21T13:20:14.892Z,19.33
2018-02-21T13:21:17.376Z,19.37
2018-02-21T13:22:19.858Z,18.67
2018-02-21T13:23:22.362Z,21.00
2018-02-21T13:24:24.849Z,17.60
2018-02-21T13:25:27.337Z,17.33
2018-02-21T13:26:29.812Z,21.53
2018-02-21T13:27:32.309Z,18.60
2018-02-21T13:28:34.783Z,20.00
2018-02-21T13:29:37.277Z,19.63
2018-02-21T13:30:39.752Z,17.80
2018-02-21T13:31:42.338Z,20.23
2018-02-21T13:32:44.819Z,17.60
2018-02-21T13:33:47.305Z,19.43
2018-02-21T13:34:49.781Z,17.77
2018-02-21T13:35:52.276Z,18.40
2018-02-21T13:36:54.821Z,21.17
2018-02-21T13:37:57.291Z,19.90
2018-02-21T13:38:59.851Z,16.60